createdAt,value
2018-04-18T00:00:27.235Z,7.30
2018-04-18T00:01:27.287Z,7.32
2018-04-18T00:02:27.259Z,7.32
2018-04-18T00:03:27.271Z,7.37
2018-04-18T00:04:27.284Z,7.35
2018-04-18T00:05:27.294Z,7.28
2018-04-18T00:06:27.309Z,7.32
2018-04-18T00:07:27.320Z,7.34
2018-04-18T00:08:27.332Z,7.30
2018-04-18T00:09:27.343Z,7.30
2018-04-18T00:10:27.355Z,7.25
2018-04-18T00:11:27.368Z,7.30
2018-04-18T00:12:27.378Z,7.32
2018-04-18T00:13:27.390Z,7.35
2018-04-18T00:14:27.401Z,7.30
2018-04-18T00:15:27.414Z,7.27
2018-04-18T00:16:27.426Z,7.25
2018-04-18T00:17:27.440Z,7.27
2018-04-18T00:18:27.451Z,7.12
2018-04-18T00:19:27.462Z,7.17
2018-04-18T00:20:27.472Z,7.16
2018-04-18T00:21:27.486Z,7.12
2018-04-18T00:22:27.496Z,7.13
2018-04-18T00:23:27.509Z,7.15
2018-04-18T00:24:27.524Z,7.16
2018-04-18T00:25:27.531Z,7.20
2018-04-18T00:26:27.543Z,7.13
2018-04-18T00:27:27.556Z,7.24
2018-04-18T00:28:27.566Z,7.13
2018-04-18T00:29:27.577Z,7.24
2018-04-18T00:30:27.591Z,7.23
2018-04-18T00:31:27.604Z,7.25
2018-04-18T00:32:27.613Z,7.25
2018-04-18T00:33:27.624Z,7.25
2018-04-18T00:34:27.637Z,7.25
2018-04-18T00:35:27.653Z,7.25
2018-04-18T00:36:27.661Z,7.23
2018-04-18T00:37:27.673Z,7.20
2018-04-18T00:38:27.685Z,7.24
2018-04-18T00:39:27.697Z,7.27
2018-04-18T00:40:27.707Z,7.24
2018-04-18T00:41:27.720Z,7.13
2018-04-18T00:42:27.731Z,7.13
2018-04-18T00:43:27.743Z,7.17
2018-04-18T00:44:27.761Z,7.12
2018-04-18T00:45:27.767Z,7.07
2018-04-18T00:46:27.780Z,7.20
2018-04-18T00:47:27.789Z,7.15
2018-04-18T00:48:27.803Z,7.20
2018-04-18T00:49:27.814Z,7.10
2018-04-18T00:50:27.825Z,7.20
2018-04-18T00:51:27.838Z,7.09
2018-04-18T00:52:27.850Z,7.13
2018-04-18T00:53:27.868Z,7.03
2018-04-18T00:54:27.874Z,6.98
2018-04-18T00:55:27.885Z,7.06
2018-04-18T00:56:27.897Z,7.02
2018-04-18T00:57:27.907Z,6.98
2018-04-18T00:58:27.924Z,6.99
2018-04-18T00:59:27.931Z,6.99
2018-04-18T01:00:27.946Z,6.98
2018-04-18T01:01:27.955Z,6.97
2018-04-18T01:02:27.966Z,7.03
2018-04-18T01:03:27.976Z,6.98
2018-04-18T01:04:27.989Z,7.03
2018-04-18T01:05:28.000Z,6.98
2018-04-18T01:06:28.014Z,6.97
2018-04-18T01:07:28.023Z,6.95
2018-04-18T01:08:28.035Z,6.95
2018-04-18T01:09:28.046Z,6.89
2018-04-18T01:10:28.058Z,6.95
2018-04-18T01:11:28.069Z,6.81
2018-04-18T01:12:28.082Z,6.87
2018-04-18T01:13:28.093Z,6.88
2018-04-18T01:14:28.106Z,6.87
2018-04-18T01:15:28.118Z,6.88
2018-04-18T01:16:28.131Z,6.84
2018-04-18T01:17:28.138Z,6.79
2018-04-18T01:18:28.150Z,6.89
2018-04-18T01:19:28.163Z,6.89
2018-04-18T01:20:28.173Z,6.81
2018-04-18T01:21:28.185Z,6.89
2018-04-18T01:22:28.196Z,6.92
2018-04-18T01:23:28.208Z,6.95
2018-04-18T01:24:28.220Z,6.95
2018-04-18T01:25:28.229Z,6.97
2018-04-18T01:26:28.241Z,6.97
2018-04-18T01:27:28.255Z,6.95
2018-04-18T01:28:28.266Z,6.92
2018-04-18T01:29:28.276Z,6.91
2018-04-18T01:30:28.289Z,6.87
2018-04-18T01:31:28.300Z,6.88
2018-04-18T01:32:28.312Z,6.89
2018-04-18T01:33:28.323Z,6.85
2018-04-18T01:34:28.336Z,6.85
2018-04-18T01:35:28.345Z,6.85
2018-04-18T01:36:28.358Z,6.88
2018-04-18T01:37:28.367Z,6.81
2018-04-18T01:38:28.386Z,6.84
2018-04-18T01:39:28.390Z,6.76
2018-04-18T01:40:28.403Z,6.84
2018-04-18T01:41:28.415Z,6.85
2018-04-18T01:42:28.425Z,6.81
2018-04-18T01:43:28.436Z,6.76
2018-04-18T01:44:28.455Z,6.77
2018-04-18T01:45:28.460Z,6.81
2018-04-18T01:46:28.471Z,6.79
2018-04-18T01:47:28.483Z,6.73
2018-04-18T01:48:28.495Z,6.79
2018-04-18T01:49:28.506Z,6.79
2018-04-18T01:50:28.515Z,6.79
2018-04-18T01:51:28.530Z,6.77
2018-04-18T01:52:28.540Z,6.79
2018-04-18T01:53:28.551Z,6.79
2018-04-18T01:54:28.562Z,6.79
2018-04-18T01:55:28.572Z,6.74
2018-04-18T01:56:28.584Z,6.77
2018-04-18T01:57:28.598Z,6.79
2018-04-18T01:58:28.607Z,6.76
2018-04-18T01:59:28.620Z,6.71
2018-04-18T02:00:28.631Z,6.74
2018-04-18T02:01:28.642Z,6.74
2018-04-18T02:02:28.652Z,6.81
2018-04-18T02:03:28.666Z,6.76
2018-04-18T02:04:28.676Z,6.71
2018-04-18T02:05:28.687Z,6.76
2018-04-18T02:06:28.700Z,6.69
2018-04-18T02:07:28.711Z,6.61
2018-04-18T02:08:28.720Z,6.70
2018-04-18T02:09:28.731Z,6.66
2018-04-18T02:10:28.742Z,6.77
2018-04-18T02:11:28.753Z,6.66
2018-04-18T02:12:28.766Z,6.59
2018-04-18T02:13:28.775Z,6.58
2018-04-18T02:14:28.787Z,6.55
2018-04-18T02:15:28.798Z,6.54
2018-04-18T02:16:28.809Z,6.46
2018-04-18T02:17:28.820Z,6.49
2018-04-18T02:18:28.830Z,6.59
2018-04-18T02:19:28.843Z,6.48
2018-04-18T02:20:28.855Z,6.51
2018-04-18T02:21:28.864Z,6.48
2018-04-18T02:22:28.876Z,6.52
2018-04-18T02:23:28.887Z,6.46
2018-04-18T02:24:28.897Z,6.34
2018-04-18T02:25:28.909Z,6.36
2018-04-18T02:26:28.922Z,6.36
2018-04-18T02:27:28.931Z,6.37
2018-04-18T02:28:28.943Z,6.38
2018-04-18T02:29:28.954Z,6.33
2018-04-18T02:30:28.964Z,6.37
2018-04-18T02:31:28.975Z,6.37
2018-04-18T02:32:28.987Z,6.36
2018-04-18T02:33:28.997Z,6.38
2018-04-18T02:34:29.009Z,6.43
2018-04-18T02:35:29.020Z,6.37
2018-04-18T02:36:29.030Z,6.36
2018-04-18T02:37:29.040Z,6.41
2018-04-18T02:38:29.054Z,6.37
2018-04-18T02:39:29.062Z,6.37
2018-04-18T02:40:29.074Z,6.34
2018-04-18T02:41:29.085Z,6.36
2018-04-18T02:42:29.096Z,6.33
2018-04-18T02:43:29.107Z,6.38
2018-04-18T02:44:29.122Z,6.36
2018-04-18T02:45:29.126Z,6.40
2018-04-18T02:46:29.138Z,6.38
2018-04-18T02:47:29.149Z,6.38
2018-04-18T02:48:29.161Z,6.37
2018-04-18T02:49:29.176Z,6.36
2018-04-18T02:50:29.181Z,6.36
2018-04-18T02:51:29.194Z,6.30
2018-04-18T02:52:29.202Z,6.41
2018-04-18T02:53:29.218Z,6.43
2018-04-18T02:54:29.223Z,6.38
2018-04-18T02:55:29.234Z,6.36
2018-04-18T02:56:29.244Z,6.30
2018-04-18T02:57:29.255Z,6.30
2018-04-18T02:58:29.269Z,6.25
2018-04-18T02:59:29.279Z,6.21
2018-04-18T03:00:29.289Z,6.25
2018-04-18T03:01:29.298Z,6.27
2018-04-18T03:02:29.310Z,6.25
2018-04-18T03:03:29.320Z,6.22
2018-04-18T03:04:29.332Z,6.27
2018-04-18T03:05:29.342Z,6.34
2018-04-18T03:06:29.352Z,6.36
2018-04-18T03:07:29.363Z,6.22
2018-04-18T03:08:29.377Z,6.27
2018-04-18T03:09:29.386Z,6.27
2018-04-18T03:10:29.395Z,6.19
2018-04-18T03:11:29.408Z,6.25
2018-04-18T03:12:29.416Z,6.25
2018-04-18T03:13:29.427Z,6.25
2018-04-18T03:14:29.438Z,6.19
2018-04-18T03:15:29.449Z,6.22
2018-04-18T03:16:29.459Z,6.19
2018-04-18T03:17:29.525Z,6.25
2018-04-18T03:18:29.480Z,6.25
2018-04-18T03:19:29.492Z,6.25
2018-04-18T03:20:29.503Z,6.25
2018-04-18T03:21:29.512Z,6.25
2018-04-18T03:22:29.523Z,6.25
2018-04-18T03:23:29.534Z,6.25
2018-04-18T03:24:29.544Z,6.25
2018-04-18T03:25:29.554Z,6.28
2018-04-18T03:26:29.564Z,6.21
2018-04-18T03:27:29.583Z,6.27
2018-04-18T03:28:29.589Z,6.22
2018-04-18T03:29:29.601Z,6.25
2018-04-18T03:30:29.610Z,6.25
2018-04-18T03:31:29.622Z,6.22
2018-04-18T03:32:29.631Z,6.21
2018-04-18T03:33:29.644Z,6.18
2018-04-18T03:34:29.653Z,6.25
2018-04-18T03:35:29.662Z,6.25
2018-04-18T03:36:29.676Z,6.25
2018-04-18T03:37:29.684Z,6.25
2018-04-18T03:38:29.695Z,6.21
2018-04-18T03:39:29.706Z,6.30
2018-04-18T03:40:29.718Z,6.25
2018-04-18T03:41:29.732Z,6.27
2018-04-18T03:42:29.740Z,6.22
2018-04-18T03:43:29.751Z,6.25
2018-04-18T03:44:29.761Z,6.21
2018-04-18T03:45:29.769Z,6.17
2018-04-18T03:46:29.781Z,6.25
2018-04-18T03:47:29.819Z,6.28
2018-04-18T03:48:29.802Z,6.22
2018-04-18T03:49:29.814Z,6.27
2018-04-18T03:50:29.822Z,6.25
2018-04-18T03:51:29.833Z,6.22
2018-04-18T03:52:29.848Z,6.21
2018-04-18T03:53:29.854Z,6.21
2018-04-18T03:54:29.865Z,6.30
2018-04-18T03:55:29.876Z,6.25
2018-04-18T03:56:29.886Z,6.22
2018-04-18T03:57:29.896Z,6.19
2018-04-18T03:58:29.908Z,6.25
2018-04-18T03:59:29.919Z,6.19
2018-04-18T04:00:29.930Z,6.30
2018-04-18T04:01:29.941Z,6.18
2018-04-18T04:02:29.996Z,6.21
2018-04-18T04:03:29.961Z,6.18
2018-04-18T04:04:29.973Z,6.22
2018-04-18T04:05:29.982Z,6.11
2018-04-18T04:06:29.995Z,6.18
2018-04-18T04:07:30.005Z,6.21
2018-04-18T04:08:30.016Z,6.25
2018-04-18T04:09:30.027Z,6.18
2018-04-18T04:10:30.068Z,6.22
2018-04-18T04:11:30.048Z,6.25
2018-04-18T04:12:30.058Z,6.25
2018-04-18T04:13:30.069Z,6.22
2018-04-18T04:14:30.085Z,6.22
2018-04-18T04:15:30.091Z,6.31
2018-04-18T04:16:30.113Z,6.31
2018-04-18T04:17:30.113Z,6.30
2018-04-18T04:18:30.124Z,6.30
2018-04-18T04:19:30.132Z,6.27
2018-04-18T04:20:30.144Z,6.22
2018-04-18T04:21:30.154Z,6.31
2018-04-18T04:22:30.165Z,6.21
2018-04-18T04:23:30.178Z,6.30
2018-04-18T04:24:30.188Z,6.27
2018-04-18T04:25:30.196Z,6.28
2018-04-18T04:26:30.207Z,6.31
2018-04-18T04:27:30.218Z,6.25
2018-04-18T04:28:30.229Z,6.28
2018-04-18T04:29:30.238Z,6.21
2018-04-18T04:30:30.257Z,6.25
2018-04-18T04:31:30.285Z,6.25
2018-04-18T04:32:30.271Z,6.28
2018-04-18T04:33:30.282Z,6.31
2018-04-18T04:34:30.291Z,6.36
2018-04-18T04:35:30.303Z,6.25
2018-04-18T04:36:30.314Z,6.31
2018-04-18T04:37:30.369Z,6.33
2018-04-18T04:38:30.336Z,6.27
2018-04-18T04:39:30.346Z,6.30
2018-04-18T04:40:30.358Z,6.25
2018-04-18T04:41:30.366Z,6.27
2018-04-18T04:42:30.379Z,6.27
2018-04-18T04:43:30.389Z,6.21
2018-04-18T04:44:30.401Z,6.28
2018-04-18T04:45:30.415Z,6.22
2018-04-18T04:46:30.424Z,6.28
2018-04-18T04:47:30.435Z,6.22
2018-04-18T04:48:30.442Z,6.25
2018-04-18T04:49:30.452Z,6.22
2018-04-18T04:50:30.465Z,6.21
2018-04-18T04:51:30.479Z,6.22
2018-04-18T04:52:30.486Z,6.21
2018-04-18T04:53:30.502Z,6.27
2018-04-18T04:54:30.505Z,6.25
2018-04-18T04:55:30.516Z,6.27
2018-04-18T04:56:30.636Z,6.25
2018-04-18T04:57:30.537Z,6.25
2018-04-18T04:58:30.548Z,6.27
2018-04-18T04:59:30.561Z,6.27
2018-04-18T05:00:30.573Z,6.21
2018-04-18T05:01:30.581Z,6.30
2018-04-18T05:02:30.614Z,6.19
2018-04-18T05:03:30.602Z,6.22
2018-04-18T05:04:30.613Z,6.22
2018-04-18T05:05:30.622Z,6.19
2018-04-18T05:06:30.634Z,6.21
2018-04-18T05:07:30.646Z,6.17
2018-04-18T05:08:30.655Z,6.25
2018-04-18T05:09:30.666Z,6.25
2018-04-18T05:10:30.677Z,6.19
2018-04-18T05:11:30.689Z,6.19
2018-04-18T05:12:30.698Z,6.21
2018-04-18T05:13:30.709Z,6.22
2018-04-18T05:14:30.718Z,6.28
2018-04-18T05:15:30.729Z,6.33
2018-04-18T05:16:30.745Z,6.31
2018-04-18T05:17:30.753Z,6.30
2018-04-18T05:18:30.762Z,6.30
2018-04-18T05:19:30.773Z,6.25
2018-04-18T05:20:30.786Z,6.18
2018-04-18T05:21:30.796Z,6.30
2018-04-18T05:22:30.805Z,6.19
2018-04-18T05:23:30.813Z,6.25
2018-04-18T05:24:30.828Z,6.27
2018-04-18T05:25:30.836Z,6.31
2018-04-18T05:26:30.849Z,6.30
2018-04-18T05:27:30.857Z,6.28
2018-04-18T05:28:30.867Z,6.25
2018-04-18T05:29:30.879Z,6.25
2018-04-18T05:30:30.891Z,6.31
2018-04-18T05:31:30.900Z,6.36
2018-04-18T05:32:30.909Z,6.40
2018-04-18T05:33:30.923Z,6.31
2018-04-18T05:34:30.934Z,6.34
2018-04-18T05:35:30.942Z,6.44
2018-04-18T05:36:30.953Z,6.43
2018-04-18T05:37:30.968Z,6.37
2018-04-18T05:38:30.973Z,6.44
2018-04-18T05:39:30.983Z,6.55
2018-04-18T05:40:30.996Z,6.52
2018-04-18T05:41:31.006Z,6.49
2018-04-18T05:42:31.022Z,6.49
2018-04-18T05:43:31.027Z,6.55
2018-04-18T05:44:31.039Z,6.49
2018-04-18T05:45:31.053Z,6.56
2018-04-18T05:46:31.065Z,6.56
2018-04-18T05:47:31.071Z,6.58
2018-04-18T05:48:31.081Z,6.56
2018-04-18T05:49:31.091Z,6.58
2018-04-18T05:50:31.109Z,6.67
2018-04-18T05:51:31.114Z,6.69
2018-04-18T05:52:31.124Z,6.67
2018-04-18T05:53:31.137Z,6.64
2018-04-18T05:54:31.148Z,6.70
2018-04-18T05:55:31.156Z,6.69
2018-04-18T05:56:31.168Z,6.62
2018-04-18T05:57:31.178Z,6.74
2018-04-18T05:58:31.188Z,6.66
2018-04-18T05:59:31.196Z,6.69
2018-04-18T06:00:31.210Z,6.59
2018-04-18T06:01:31.218Z,6.71
2018-04-18T06:02:31.229Z,6.69
2018-04-18T06:03:31.247Z,6.66
2018-04-18T06:04:31.252Z,6.69
2018-04-18T06:05:31.261Z,6.66
2018-04-18T06:06:31.272Z,6.61
2018-04-18T06:07:31.284Z,6.59
2018-04-18T06:08:31.297Z,6.73
2018-04-18T06:09:31.304Z,6.76
2018-04-18T06:10:31.316Z,6.76
2018-04-18T06:11:31.326Z,6.81
2018-04-18T06:12:31.339Z,6.81
2018-04-18T06:13:31.349Z,6.91
2018-04-18T06:14:31.358Z,6.95
2018-04-18T06:15:31.371Z,6.94
2018-04-18T06:16:31.381Z,6.97
2018-04-18T06:17:31.392Z,7.05
2018-04-18T06:18:31.403Z,7.03
2018-04-18T06:19:31.415Z,7.13
2018-04-18T06:20:31.427Z,7.09
2018-04-18T06:21:31.437Z,7.16
2018-04-18T06:22:31.447Z,7.24
2018-04-18T06:23:31.459Z,7.24
2018-04-18T06:24:31.470Z,7.27
2018-04-18T06:25:31.481Z,7.28
2018-04-18T06:26:31.495Z,7.37
2018-04-18T06:27:31.503Z,7.50
2018-04-18T06:28:31.513Z,7.53
2018-04-18T06:29:31.524Z,7.64
2018-04-18T06:30:31.536Z,7.67
2018-04-18T06:31:31.547Z,7.74
2018-04-18T06:32:31.563Z,7.71
2018-04-18T06:33:31.569Z,7.80
2018-04-18T06:34:31.583Z,7.82
2018-04-18T06:35:31.593Z,7.87
2018-04-18T06:36:31.605Z,7.86
2018-04-18T06:37:31.615Z,8.00
2018-04-18T06:38:31.627Z,8.00
2018-04-18T06:39:31.639Z,8.12
2018-04-18T06:40:31.650Z,8.30
2018-04-18T06:41:31.664Z,8.43
2018-04-18T06:42:31.674Z,8.40
2018-04-18T06:43:31.683Z,8.53
2018-04-18T06:44:31.695Z,8.62
2018-04-18T06:45:31.707Z,8.73
2018-04-18T06:46:31.720Z,8.80
2018-04-18T06:47:31.728Z,8.73
2018-04-18T06:48:31.743Z,8.89
2018-04-18T06:49:31.752Z,8.79
2018-04-18T06:50:31.764Z,8.70
2018-04-18T06:51:31.775Z,8.80
2018-04-18T06:52:31.792Z,8.63
2018-04-18T06:53:31.798Z,8.61
2018-04-18T06:54:31.811Z,8.61
2018-04-18T06:55:31.823Z,8.59
2018-04-18T06:56:31.833Z,8.63
2018-04-18T06:57:31.852Z,8.74
2018-04-18T06:58:31.856Z,8.77
2018-04-18T06:59:31.870Z,8.84
2018-04-18T07:00:31.881Z,8.91
2018-04-18T07:01:31.891Z,8.92
2018-04-18T07:02:31.903Z,8.91
2018-04-18T07:03:31.931Z,9.18
2018-04-18T07:04:31.939Z,9.20
2018-04-18T07:05:31.936Z,9.15
2018-04-18T07:06:31.949Z,9.13
2018-04-18T07:07:31.963Z,9.13
2018-04-18T07:08:31.972Z,9.15
2018-04-18T07:09:31.985Z,9.10
2018-04-18T07:10:31.997Z,9.11
2018-04-18T07:11:32.008Z,9.10
2018-04-18T07:12:32.022Z,9.20
2018-04-18T07:13:32.031Z,9.21
2018-04-18T07:14:32.044Z,9.24
2018-04-18T07:15:32.058Z,9.24
2018-04-18T07:16:32.067Z,9.20
2018-04-18T07:17:32.080Z,9.29
2018-04-18T07:18:32.089Z,9.35
2018-04-18T07:19:32.103Z,9.31
2018-04-18T07:20:32.117Z,9.33
2018-04-18T07:21:32.128Z,9.35
2018-04-18T07:22:32.137Z,9.23
2018-04-18T07:23:32.153Z,9.23
2018-04-18T07:24:32.163Z,9.32
2018-04-18T07:25:32.174Z,9.48
2018-04-18T07:26:32.188Z,9.56
2018-04-18T07:27:32.248Z,9.75
2018-04-18T07:28:32.210Z,9.83
2018-04-18T07:29:32.220Z,9.78
2018-04-18T07:30:32.239Z,9.79
2018-04-18T07:31:32.247Z,9.87
2018-04-18T07:32:32.262Z,9.74
2018-04-18T07:33:32.272Z,9.74
2018-04-18T07:34:32.280Z,9.96
2018-04-18T07:35:32.295Z,10.04
2018-04-18T07:36:32.307Z,10.07
2018-04-18T07:37:32.348Z,10.15
2018-04-18T07:38:32.330Z,10.01
2018-04-18T07:39:32.341Z,10.07
2018-04-18T07:40:32.353Z,10.01
2018-04-18T07:41:32.363Z,10.05
2018-04-18T07:42:32.379Z,10.44
2018-04-18T07:43:32.389Z,10.36
2018-04-18T07:44:32.402Z,10.33
2018-04-18T07:45:32.414Z,10.38
2018-04-18T07:46:32.426Z,10.02
2018-04-18T07:47:32.440Z,9.91
2018-04-18T07:48:32.453Z,9.90
2018-04-18T07:49:32.461Z,10.02
2018-04-18T07:50:32.473Z,10.02
2018-04-18T07:51:32.491Z,10.02
2018-04-18T07:52:32.503Z,10.32
2018-04-18T07:53:32.515Z,10.30
2018-04-18T07:54:32.526Z,10.17
2018-04-18T07:55:32.537Z,10.09
2018-04-18T07:56:32.552Z,10.61
2018-04-18T07:57:32.564Z,10.64
2018-04-18T07:58:32.575Z,10.67
2018-04-18T07:59:32.587Z,10.68
2018-04-18T08:00:32.600Z,10.79
2018-04-18T08:01:32.614Z,10.91
2018-04-18T08:02:32.625Z,10.64
2018-04-18T08:03:32.636Z,10.64
2018-04-18T08:04:32.651Z,10.64
2018-04-18T08:05:32.663Z,10.71
2018-04-18T08:06:32.676Z,10.71
2018-04-18T08:07:32.688Z,10.92
2018-04-18T08:08:32.769Z,10.96
2018-04-18T08:09:32.711Z,11.15
2018-04-18T08:10:32.726Z,11.07
2018-04-18T08:11:32.738Z,10.86
2018-04-18T08:12:32.753Z,10.78
2018-04-18T08:13:32.765Z,10.84
2018-04-18T08:14:32.779Z,11.03
2018-04-18T08:15:32.791Z,11.00
2018-04-18T08:16:32.815Z,11.17
2018-04-18T08:17:32.816Z,11.17
2018-04-18T08:18:32.830Z,11.19
2018-04-18T08:19:32.842Z,10.97
2018-04-18T08:20:32.856Z,11.02
2018-04-18T08:21:32.867Z,10.92
2018-04-18T08:22:32.882Z,10.85
2018-04-18T08:23:32.897Z,10.84
2018-04-18T08:24:32.906Z,10.74
2018-04-18T08:25:32.919Z,10.81
2018-04-18T08:26:32.937Z,10.68
2018-04-18T08:27:32.947Z,10.71
2018-04-18T08:28:32.959Z,10.86
2018-04-18T08:29:32.972Z,10.79
2018-04-18T08:30:32.985Z,10.88
2018-04-18T08:31:32.998Z,11.03
2018-04-18T08:32:33.009Z,10.86
2018-04-18T08:33:33.026Z,11.02
2018-04-18T08:34:33.037Z,10.88
2018-04-18T08:35:33.050Z,11.32
2018-04-18T08:36:33.064Z,11.33
2018-04-18T08:37:33.076Z,11.44
2018-04-18T08:38:33.089Z,11.82
2018-04-18T08:39:33.109Z,12.13
2018-04-18T08:40:33.117Z,12.09
2018-04-18T08:41:33.129Z,12.02
2018-04-18T08:42:33.146Z,11.88
2018-04-18T08:43:33.163Z,12.21
2018-04-18T08:44:33.175Z,12.50
2018-04-18T08:45:33.184Z,12.57
2018-04-18T08:46:33.198Z,12.38
2018-04-18T08:47:33.217Z,12.35
2018-04-18T08:48:33.226Z,12.46
2018-04-18T08:49:33.491Z,12.60
2018-04-18T08:50:33.251Z,12.53
2018-04-18T08:51:33.275Z,12.45
2018-04-18T08:52:33.279Z,12.62
2018-04-18T08:53:33.295Z,12.52
2018-04-18T08:54:33.308Z,12.41
2018-04-18T08:55:33.322Z,12.38
2018-04-18T08:56:33.335Z,12.45
2018-04-18T08:57:33.348Z,12.31
2018-04-18T08:58:33.366Z,12.52
2018-04-18T08:59:33.377Z,12.46
2018-04-18T09:00:33.389Z,12.04
2018-04-18T09:01:33.403Z,12.09
2018-04-18T09:02:33.416Z,12.32
2018-04-18T09:03:33.429Z,12.50
2018-04-18T09:04:33.445Z,12.67
2018-04-18T09:05:33.458Z,12.39
2018-04-18T09:06:33.473Z,12.45
2018-04-18T09:07:33.489Z,12.95
2018-04-18T09:08:33.502Z,13.10
2018-04-18T09:09:33.514Z,12.78
2018-04-18T09:10:33.527Z,12.70
2018-04-18T09:11:33.543Z,13.12
2018-04-18T09:12:33.556Z,13.32
2018-04-18T09:13:33.577Z,12.75
2018-04-18T09:14:33.584Z,12.45
2018-04-18T09:15:33.600Z,12.05
2018-04-18T09:16:33.614Z,12.37
2018-04-18T09:17:33.629Z,12.57
2018-04-18T09:18:33.641Z,12.14
2018-04-18T09:19:33.655Z,12.07
2018-04-18T09:20:33.669Z,12.07
2018-04-18T09:21:33.687Z,12.52
2018-04-18T09:22:33.697Z,12.79
2018-04-18T09:23:33.715Z,12.97
2018-04-18T09:24:33.726Z,12.93
2018-04-18T09:25:33.744Z,13.26
2018-04-18T09:26:33.753Z,13.51
2018-04-18T09:27:33.766Z,13.70
2018-04-18T09:28:33.810Z,13.69
2018-04-18T09:29:33.796Z,13.07
2018-04-18T09:30:33.808Z,12.85
2018-04-18T09:31:33.825Z,12.82
2018-04-18T09:32:33.840Z,12.75
2018-04-18T09:33:33.855Z,12.82
2018-04-18T09:34:33.867Z,13.26
2018-04-18T09:35:33.881Z,13.15
2018-04-18T09:36:33.897Z,13.15
2018-04-18T09:37:33.909Z,13.22
2018-04-18T09:38:33.927Z,13.25
2018-04-18T09:39:33.939Z,13.29
2018-04-18T09:40:33.953Z,13.55
2018-04-18T09:41:33.969Z,13.04
2018-04-18T09:42:33.982Z,13.29
2018-04-18T09:43:33.999Z,13.69
2018-04-18T09:44:34.012Z,13.87
2018-04-18T09:45:34.026Z,14.15
2018-04-18T09:46:34.041Z,13.77
2018-04-18T09:47:34.057Z,13.75
2018-04-18T09:48:34.072Z,14.06
2018-04-18T09:49:34.087Z,14.17
2018-04-18T09:50:34.101Z,14.33
2018-04-18T09:51:34.117Z,14.70
2018-04-18T09:52:34.132Z,14.96
2018-04-18T09:53:34.148Z,14.24
2018-04-18T09:54:34.166Z,14.60
2018-04-18T09:55:34.180Z,14.75
2018-04-18T09:56:34.194Z,15.16
2018-04-18T09:57:34.208Z,15.29
2018-04-18T09:58:34.224Z,14.62
2018-04-18T09:59:34.241Z,14.29
2018-04-18T10:00:34.262Z,13.87
2018-04-18T10:01:34.271Z,13.96
2018-04-18T10:02:34.286Z,14.33
2018-04-18T10:03:34.304Z,14.46
2018-04-18T10:04:34.318Z,14.65
2018-04-18T10:05:34.335Z,14.84
2018-04-18T10:06:34.350Z,15.03
2018-04-18T10:07:34.366Z,14.96
2018-04-18T10:08:34.381Z,15.29
2018-04-18T10:09:34.403Z,15.17
2018-04-18T10:10:34.414Z,15.43
2018-04-18T10:11:34.428Z,14.57
2018-04-18T10:12:34.446Z,14.80
2018-04-18T10:13:34.461Z,13.87
2018-04-18T10:14:34.480Z,13.77
2018-04-18T10:15:34.494Z,13.95
2018-04-18T10:16:34.509Z,13.87
2018-04-18T10:17:34.524Z,14.21
2018-04-18T10:18:34.539Z,13.88
2018-04-18T10:19:34.559Z,14.18
2018-04-18T10:20:34.575Z,14.04
2018-04-18T10:21:34.586Z,13.97
2018-04-18T10:22:34.603Z,14.24
2018-04-18T10:23:34.618Z,13.73
2018-04-18T10:24:34.634Z,14.06
2018-04-18T10:25:34.648Z,13.88
2018-04-18T10:26:34.667Z,14.15
2018-04-18T10:27:34.682Z,14.36
2018-04-18T10:28:34.699Z,14.43
2018-04-18T10:29:34.716Z,14.75
2018-04-18T10:30:34.729Z,14.98
2018-04-18T10:31:34.789Z,15.17
2018-04-18T10:32:34.761Z,15.54
2018-04-18T10:33:34.776Z,15.39
2018-04-18T10:34:34.793Z,15.31
2018-04-18T10:35:34.807Z,15.21
2018-04-18T10:36:34.826Z,15.29
2018-04-18T10:37:34.846Z,15.38
2018-04-18T10:38:34.858Z,15.53
2018-04-18T10:39:34.875Z,15.78
2018-04-18T10:40:34.890Z,15.54
2018-04-18T10:41:34.916Z,15.62
2018-04-18T10:42:34.923Z,15.64
2018-04-18T10:43:34.939Z,15.60
2018-04-18T10:44:34.955Z,15.20
2018-04-18T10:45:34.973Z,14.94
2018-04-18T10:46:34.988Z,15.16
2018-04-18T10:47:35.007Z,15.41
2018-04-18T10:48:35.026Z,15.17
2018-04-18T10:49:35.040Z,14.69
2018-04-18T10:50:35.056Z,14.95
2018-04-18T10:51:35.072Z,15.11
2018-04-18T10:52:35.090Z,14.95
2018-04-18T10:53:35.106Z,15.29
2018-04-18T10:54:35.122Z,15.57
2018-04-18T10:55:35.142Z,15.84
2018-04-18T10:56:35.157Z,15.64
2018-04-18T10:57:35.174Z,16.05
2018-04-18T10:58:35.246Z,16.41
2018-04-18T10:59:35.208Z,16.33
2018-04-18T11:00:35.226Z,15.62
2018-04-18T11:01:35.244Z,16.21
2018-04-18T11:02:35.260Z,15.27
2018-04-18T11:03:35.279Z,15.36
2018-04-18T11:04:35.295Z,15.62
2018-04-18T11:05:35.311Z,15.68
2018-04-18T11:06:35.332Z,15.60
2018-04-18T11:07:35.346Z,15.86
2018-04-18T11:08:35.363Z,15.50
2018-04-18T11:09:35.381Z,15.54
2018-04-18T11:10:35.397Z,15.39
2018-04-18T11:11:35.413Z,15.75
2018-04-18T11:12:35.433Z,15.83
2018-04-18T11:13:35.450Z,15.43
2018-04-18T11:14:35.466Z,14.77
2018-04-18T11:15:35.483Z,14.62
2018-04-18T11:16:35.505Z,15.16
2018-04-18T11:17:35.517Z,15.92
2018-04-18T11:18:35.535Z,16.33
2018-04-18T11:19:35.552Z,16.48
2018-04-18T11:20:35.569Z,16.42
2018-04-18T11:21:35.586Z,16.33
2018-04-18T11:22:35.602Z,15.84
2018-04-18T11:23:35.620Z,16.48
2018-04-18T11:24:35.638Z,16.48
2018-04-18T11:25:35.656Z,16.42
2018-04-18T11:26:35.674Z,16.45
2018-04-18T11:27:35.692Z,16.75
2018-04-18T11:28:35.708Z,16.83
2018-04-18T11:29:35.727Z,17.00
2018-04-18T11:30:35.757Z,16.39
2018-04-18T11:31:35.767Z,16.76
2018-04-18T11:32:35.779Z,17.01
2018-04-18T11:33:35.798Z,17.38
2018-04-18T11:34:35.814Z,17.71
2018-04-18T11:35:35.834Z,16.76
2018-04-18T11:36:35.850Z,16.09
2018-04-18T11:37:35.870Z,16.48
2018-04-18T11:38:35.886Z,17.06
2018-04-18T11:39:35.906Z,17.31
2018-04-18T11:40:35.923Z,17.38
2018-04-18T11:41:35.942Z,16.85
2018-04-18T11:42:35.960Z,16.83
2018-04-18T11:43:35.985Z,16.85
2018-04-18T11:44:36.003Z,16.56
2018-04-18T11:45:36.015Z,16.43
2018-04-18T11:46:36.032Z,16.35
2018-04-18T11:47:36.058Z,16.24
2018-04-18T11:48:36.070Z,16.33
2018-04-18T11:49:36.090Z,16.68
2018-04-18T11:50:36.106Z,17.28
2018-04-18T11:51:36.128Z,17.86
2018-04-18T11:52:36.146Z,18.17
2018-04-18T11:53:36.163Z,17.95
2018-04-18T11:54:36.182Z,18.07
2018-04-18T11:55:36.202Z,17.44
2018-04-18T11:56:36.220Z,17.52
2018-04-18T11:57:36.289Z,17.63
2018-04-18T11:58:36.256Z,17.86
2018-04-18T11:59:36.276Z,18.33
2018-04-18T12:00:36.292Z,18.37
2018-04-18T12:01:36.313Z,17.55
2018-04-18T12:02:36.332Z,17.63
2018-04-18T12:03:36.351Z,17.41
2018-04-18T12:04:36.370Z,17.58
2018-04-18T12:05:36.391Z,18.00
2018-04-18T12:06:36.410Z,17.26
2018-04-18T12:07:36.430Z,16.94
2018-04-18T12:08:36.446Z,17.34
2018-04-18T12:09:36.467Z,17.64
2018-04-18T12:10:36.486Z,17.79
2018-04-18T12:11:36.530Z,17.11
2018-04-18T12:12:36.524Z,17.58
2018-04-18T12:13:36.543Z,17.75
2018-04-18T12:14:36.564Z,18.08
2018-04-18T12:15:36.581Z,18.44
2018-04-18T12:16:36.602Z,18.73
2018-04-18T12:17:36.620Z,18.99
2018-04-18T12:18:36.642Z,18.67
2018-04-18T12:19:36.659Z,17.95
2018-04-18T12:20:36.717Z,18.02
2018-04-18T12:21:36.751Z,17.54
2018-04-18T12:22:36.718Z,17.77
2018-04-18T12:23:36.738Z,17.96
2018-04-18T12:24:36.757Z,17.54
2018-04-18T12:25:36.775Z,17.97
2018-04-18T12:26:36.808Z,17.58
2018-04-18T12:27:36.814Z,17.08
2018-04-18T12:28:36.836Z,16.82
2018-04-18T12:29:36.851Z,16.85
2018-04-18T12:30:36.874Z,16.41
2018-04-18T12:31:36.894Z,16.61
2018-04-18T12:32:36.914Z,17.00
2018-04-18T12:33:36.932Z,17.34
2018-04-18T12:34:36.951Z,17.58
2018-04-18T12:35:36.970Z,17.54
2018-04-18T12:36:36.993Z,17.44
2018-04-18T12:37:37.013Z,17.08
2018-04-18T12:38:37.038Z,17.68
2018-04-18T12:39:37.050Z,17.52
2018-04-18T12:40:37.071Z,17.01
2018-04-18T12:41:37.089Z,16.97
2018-04-18T12:42:37.110Z,17.26
2018-04-18T12:43:37.129Z,17.06
2018-04-18T12:44:37.152Z,17.08
2018-04-18T12:45:37.169Z,16.86
2018-04-18T12:46:37.188Z,17.21
2018-04-18T12:47:37.207Z,17.72
2018-04-18T12:48:37.227Z,18.02
2018-04-18T12:49:37.245Z,17.93
2018-04-18T12:50:37.264Z,17.78
2018-04-18T12:51:37.285Z,18.29
2018-04-18T12:52:37.304Z,18.63
2018-04-18T12:53:37.323Z,18.18
2018-04-18T12:54:37.342Z,17.89
2018-04-18T12:55:37.362Z,18.37
2018-04-18T12:56:37.384Z,18.35
2018-04-18T12:57:37.446Z,18.29
2018-04-18T12:58:37.421Z,18.29
2018-04-18T12:59:37.441Z,18.67
2018-04-18T13:00:37.462Z,18.58
2018-04-18T13:01:37.481Z,18.99
2018-04-18T13:02:37.502Z,18.76
2018-04-18T13:03:37.522Z,18.44
2018-04-18T13:04:37.548Z,18.10
2018-04-18T13:05:37.561Z,17.31
2018-04-18T13:06:37.581Z,17.46
2018-04-18T13:07:37.602Z,17.74